Capt. W.d. Nunley — WDF6047 — position and weather

sailwx.info

Track history (hours):
 
Tides and Currents Weather Stations Pressure Air Temp Water Temp Dewpoint Dewpoint Depression Visibility Wind Speed Wind Dir Waves Ship Positions

Capt. W.d. Nunley

Owner: Florida Marine Transporters, LLC, Mandeville, LA. More information available from US FCC via Universal Licensing System and Coast Guard Vessel Documentation Center.

Last reported at 2018-Jul-21 18:38 UTC. Time now 2018-Jul-21 19:21 UTC.
Position N 30°44' W 091°33'.

Length 37 m; draft 2.9 m.

Type: Ship (hazmat cat A). MMSI: 367470060.

Date/timePositionNaut miles runAvg speedWind from/ knotsBaromVisibWave heightAir tempDewpointWater temp
2018-Jul-21 18:38N 30°44' W 091°33'20 3.0
2018-Jul-21 12:12N 30°32' W 091°16'1 4.8
2018-Jul-21 12:00N 30°31' W 091°17'3 3.4
2018-Jul-21 11:07N 30°31' W 091°13'1 4.2
2018-Jul-21 10:59N 30°31' W 091°13'0 0.1
2018-Jul-21 10:05N 30°31' W 091°13'0 0.0
2018-Jul-21 09:53N 30°31' W 091°13'0 0.0
2018-Jul-21 09:28N 30°31' W 091°13'8 2.4
2018-Jul-21 06:18N 30°24' W 091°13'0 0.0
2018-Jul-21 05:42N 30°24' W 091°13'  
2018-Jul-16 13:49N 31°01' W 091°36'0 0.3
2018-Jul-16 13:30N 31°01' W 091°36'64 3.7
2018-Jul-15 20:00N 31°60' W 091°05'5 7.1
2018-Jul-15 19:15N 32°05' W 091°05'2 8.3
2018-Jul-15 19:01N 32°07' W 091°06'3 6.5
2018-Jul-15 18:30N 32°07' W 091°03'3 6.1
2018-Jul-15 18:00N 32°09' W 091°00'4 8.1
2018-Jul-15 17:31N 32°13' W 090°59'4 7.9
2018-Jul-15 17:01N 32°17' W 090°57'4 8.0
2018-Jul-15 16:31N 32°20' W 090°54'4 7.8
2018-Jul-15 16:00N 32°21' W 090°59'3 5.9
2018-Jul-15 15:31N 32°24' W 090°59'4 7.4
2018-Jul-15 15:01N 32°26' W 091°03'4 8.1
2018-Jul-15 14:30N 32°29' W 091°07'4 8.0
2018-Jul-15 13:57N 32°33' W 091°06'4 8.0
2018-Jul-15 13:30N 32°36' W 091°08'4 7.3
2018-Jul-15 12:59N 32°40' W 091°08'  
Track history (hours):
 
Tides and Currents Weather Stations Pressure Air Temp Water Temp Dewpoint Dewpoint Depression Visibility Wind Speed Wind Dir Waves Ship Positions

Capt. W.d. Nunley

Owner: Florida Marine Transporters, LLC, Mandeville, LA. More information available from US FCC via Universal Licensing System and Coast Guard Vessel Documentation Center.

Last reported at 2018-Jul-21 18:38 UTC. Time now 2018-Jul-21 19:21 UTC.
Position N 30°44' W 091°33'.

Length 37 m; draft 2.9 m.

Type: Ship (hazmat cat A). MMSI: 367470060.

Date/timePositionNaut miles runAvg speedWind from/ knotsBaromVisibWave heightAir tempDewpointWater temp
2018-Jul-21 18:38N 30°44' W 091°33'20 3.0
2018-Jul-21 12:12N 30°32' W 091°16'1 4.8
2018-Jul-21 12:00N 30°31' W 091°17'3 3.4
2018-Jul-21 11:07N 30°31' W 091°13'1 4.2
2018-Jul-21 10:59N 30°31' W 091°13'0 0.1
2018-Jul-21 10:05N 30°31' W 091°13'0 0.0
2018-Jul-21 09:53N 30°31' W 091°13'0 0.0
2018-Jul-21 09:28N 30°31' W 091°13'8 2.4
2018-Jul-21 06:18N 30°24' W 091°13'0 0.0
2018-Jul-21 05:42N 30°24' W 091°13'  
2018-Jul-16 13:49N 31°01' W 091°36'0 0.3
2018-Jul-16 13:30N 31°01' W 091°36'64 3.7
2018-Jul-15 20:00N 31°60' W 091°05'5 7.1
2018-Jul-15 19:15N 32°05' W 091°05'2 8.3
2018-Jul-15 19:01N 32°07' W 091°06'3 6.5
2018-Jul-15 18:30N 32°07' W 091°03'3 6.1
2018-Jul-15 18:00N 32°09' W 091°00'4 8.1
2018-Jul-15 17:31N 32°13' W 090°59'4 7.9
2018-Jul-15 17:01N 32°17' W 090°57'4 8.0
2018-Jul-15 16:31N 32°20' W 090°54'4 7.8
2018-Jul-15 16:00N 32°21' W 090°59'3 5.9
2018-Jul-15 15:31N 32°24' W 090°59'4 7.4
2018-Jul-15 15:01N 32°26' W 091°03'4 8.1
2018-Jul-15 14:30N 32°29' W 091°07'4 8.0
2018-Jul-15 13:57N 32°33' W 091°06'4 8.0
2018-Jul-15 13:30N 32°36' W 091°08'4 7.3
2018-Jul-15 12:59N 32°40' W 091°08'  

Dump ship's entire track history